Time;durP1;ratioP1;P1;durP2;ratioP2;P2;SDS_P1;SDS_P2;PMS_P1;PMS_P2;Temp;Humidity;BMP_temperature;BMP_pressure;BME280_temperature;BME280_humidity;BME280_pressure;Samples;Min_cycle;Max_cycle;Signal;HPM_P1;HPM_P2
2021/03/05 00:00:24;;;;;;;35.15;32.40;;;;;;;;;;5027206;28;20071;-81
2021/03/05 00:02:52;;;;;;;29.20;26.98;;;;;;;;;;5017694;28;20049;-81
2021/03/05 00:05:30;;;;;;;27.88;25.55;;;;;;;;;;5042014;28;20563;-81
2021/03/05 00:07:58;;;;;;;34.58;31.92;;;;;;;;;;5012524;28;20091;-81
2021/03/05 00:10:29;;;;;;;34.72;31.85;;;;;;;;;;5052252;28;20029;-81
2021/03/05 00:12:56;;;;;;;36.47;33.70;;;;;;;;;;5048011;28;20049;-81
2021/03/05 00:15:24;;;;;;;35.83;33.08;;;;;;;;;;5033980;28;20036;-81
2021/03/05 00:17:51;;;;;;;32.40;30.58;;;;;;;;;;5030016;28;20069;-81
2021/03/05 00:20:20;;;;;;;33.85;31.02;;;;;;;;;;5047862;28;20057;-81
2021/03/05 00:22:47;;;;;;;36.28;33.47;;;;;;;;;;5033571;28;20414;-81
2021/03/05 00:25:14;;;;;;;38.47;35.50;;;;;;;;;;5029138;28;20103;-81
2021/03/05 00:27:41;;;;;;;36.67;34.10;;;;;;;;;;5051708;28;20029;-81
2021/03/05 00:30:09;;;;;;;35.20;32.67;;;;;;;;;;5037322;28;20041;-81
2021/03/05 00:32:36;;;;;;;38.05;34.92;;;;;;;;;;5040471;28;20539;-81
2021/03/05 00:35:05;;;;;;;35.45;32.38;;;;;;;;;;5033304;28;20036;-81
2021/03/05 00:37:32;;;;;;;39.60;36.55;;;;;;;;;;5029444;28;20107;-81
2021/03/05 00:39:59;;;;;;;37.00;34.05;;;;;;;;;;5032138;28;20079;-81
2021/03/05 00:42:27;;;;;;;36.85;34.33;;;;;;;;;;5032830;28;20073;-81
2021/03/05 00:44:54;;;;;;;35.35;32.92;;;;;;;;;;5028948;28;20048;-81
2021/03/05 00:47:21;;;;;;;33.03;30.58;;;;;;;;;;5017203;28;20083;-81
2021/03/05 00:49:48;;;;;;;36.03;33.30;;;;;;;;;;5047047;28;20044;-81
2021/03/05 00:52:15;;;;;;;29.95;27.30;;;;;;;;;;5049883;28;20065;-81
2021/03/05 00:54:42;;;;;;;32.65;29.92;;;;;;;;;;5049099;28;20037;-81
2021/03/05 00:57:09;;;;;;;36.63;33.72;;;;;;;;;;5029374;28;20075;-81
2021/03/05 00:59:36;;;;;;;29.00;26.38;;;;;;;;;;5052643;28;20055;-81
2021/03/05 01:02:03;;;;;;;34.95;32.38;;;;;;;;;;5032299;28;20072;-81
2021/03/05 01:04:31;;;;;;;35.65;32.95;;;;;;;;;;5043991;28;20033;-81
2021/03/05 01:06:58;;;;;;;32.05;29.67;;;;;;;;;;5032733;28;20114;-81
2021/03/05 01:09:25;;;;;;;29.05;26.60;;;;;;;;;;5029817;28;20044;-81
2021/03/05 01:11:52;;;;;;;32.72;30.13;;;;;;;;;;5017126;28;20389;-81
2021/03/05 01:14:18;;;;;;;33.20;30.27;;;;;;;;;;5028974;28;20124;-81
2021/03/05 01:16:45;;;;;;;35.72;32.47;;;;;;;;;;5029097;28;20238;-81
2021/03/05 01:19:13;;;;;;;30.77;28.25;;;;;;;;;;5037329;28;20038;-81
2021/03/05 01:21:40;;;;;;;33.58;31.17;;;;;;;;;;5029632;28;20045;-81
2021/03/05 01:24:08;;;;;;;32.05;29.45;;;;;;;;;;5015200;28;20116;-81
2021/03/05 01:26:48;;;;;;;34.00;31.25;;;;;;;;;;5048715;28;20044;-81
2021/03/05 01:29:16;;;;;;;35.60;33.00;;;;;;;;;;5027810;28;20044;-81
2021/03/05 01:31:43;;;;;;;36.20;33.10;;;;;;;;;;5050869;28;20069;-81
2021/03/05 01:34:10;;;;;;;38.05;35.28;;;;;;;;;;5046501;28;20029;-81
2021/03/05 01:36:37;;;;;;;37.83;35.08;;;;;;;;;;5031592;28;20083;-81
2021/03/05 01:39:05;;;;;;;36.65;33.58;;;;;;;;;;5033650;28;20052;-81
2021/03/05 01:41:32;;;;;;;36.88;33.92;;;;;;;;;;5028351;28;20486;-81
2021/03/05 01:44:00;;;;;;;35.78;32.83;;;;;;;;;;5016240;28;20064;-81
2021/03/05 01:46:27;;;;;;;37.55;34.40;;;;;;;;;;5047207;28;20107;-81
2021/03/05 01:48:56;;;;;;;34.35;32.00;;;;;;;;;;5047040;28;20056;-81
2021/03/05 01:51:25;;;;;;;36.75;34.05;;;;;;;;;;5017434;28;20041;-81
2021/03/05 01:53:52;;;;;;;33.67;30.75;;;;;;;;;;5028015;28;20544;-81
2021/03/05 01:56:33;;;;;;;20.48;18.45;;;;;;;;;;5046044;28;20033;-81
2021/03/05 01:59:02;;;;;;;19.60;17.30;;;;;;;;;;5048020;28;20068;-81
2021/03/05 02:01:29;;;;;;;23.48;18.27;;;;;;;;;;5025726;28;20045;-81
2021/03/05 02:03:57;;;;;;;23.13;17.52;;;;;;;;;;5033410;28;20048;-81
2021/03/05 02:06:24;;;;;;;18.83;16.50;;;;;;;;;;5028985;28;20107;-81
2021/03/05 02:08:51;;;;;;;22.42;19.17;;;;;;;;;;5031181;28;20037;-81
2021/03/05 02:11:22;;;;;;;18.17;16.88;;;;;;;;;;5031531;28;20041;-81
2021/03/05 02:13:49;;;;;;;17.63;16.27;;;;;;;;;;5026111;28;20049;-81
2021/03/05 02:16:39;;;;;;;17.92;16.20;;;;;;;;;;5050114;28;20118;-81
2021/03/05 02:19:13;;;;;;;16.98;15.38;;;;;;;;;;5043906;28;20111;-81
2021/03/05 02:22:00;;;;;;;16.00;14.40;;;;;;;;;;5015768;28;20103;-81
2021/03/05 02:24:58;;;;;;;18.17;16.42;;;;;;;;;;5033104;28;20489;-81
2021/03/05 02:27:51;;;;;;;20.13;18.20;;;;;;;;;;5048983;28;20072;-81
2021/03/05 02:30:29;;;;;;;19.63;17.67;;;;;;;;;;5045508;28;20048;-81
2021/03/05 02:33:14;;;;;;;22.00;19.23;;;;;;;;;;5020963;28;20436;-81
2021/03/05 02:35:43;;;;;;;25.05;21.33;;;;;;;;;;5033752;28;20065;-81
2021/03/05 02:38:13;;;;;;;32.92;30.65;;;;;;;;;;5027478;28;20500;-81
2021/03/05 02:40:43;;;;;;;34.03;31.25;;;;;;;;;;5031968;28;20044;-81
2021/03/05 02:43:16;;;;;;;33.95;31.42;;;;;;;;;;5017104;28;20048;-81
2021/03/05 02:45:43;;;;;;;28.65;26.13;;;;;;;;;;5025545;28;20092;-81
2021/03/05 02:48:16;;;;;;;33.10;30.70;;;;;;;;;;5046150;28;20044;-81
2021/03/05 02:50:45;;;;;;;22.10;20.55;;;;;;;;;;5018985;28;20044;-81
2021/03/05 02:53:16;;;;;;;29.88;27.50;;;;;;;;;;5034011;28;20046;-81
2021/03/05 02:55:43;;;;;;;34.63;31.92;;;;;;;;;;5036943;28;20386;-81
2021/03/05 02:58:13;;;;;;;35.65;32.90;;;;;;;;;;5030587;28;20402;-81
2021/03/05 03:00:41;;;;;;;36.97;33.95;;;;;;;;;;5054578;28;20108;-81
2021/03/05 03:03:08;;;;;;;36.30;33.97;;;;;;;;;;5049824;28;20068;-81
2021/03/05 03:05:35;;;;;;;36.15;33.40;;;;;;;;;;5050432;28;20075;-81
2021/03/05 03:08:03;;;;;;;35.63;33.00;;;;;;;;;;5052415;28;20037;-81
2021/03/05 03:10:30;;;;;;;31.88;28.85;;;;;;;;;;5017748;28;20494;-81
2021/03/05 03:12:58;;;;;;;33.72;31.27;;;;;;;;;;5035084;28;20111;-81
2021/03/05 03:15:28;;;;;;;35.67;32.92;;;;;;;;;;5032567;28;20056;-81
2021/03/05 03:17:56;;;;;;;35.22;32.75;;;;;;;;;;5050044;28;20034;-81
2021/03/05 03:20:25;;;;;;;34.10;32.05;;;;;;;;;;5034530;28;20064;-81
2021/03/05 03:22:52;;;;;;;34.45;31.75;;;;;;;;;;5030484;28;20041;-81
2021/03/05 03:25:19;;;;;;;35.28;32.90;;;;;;;;;;5028205;28;20422;-81
2021/03/05 03:27:46;;;;;;;37.05;34.33;;;;;;;;;;5050460;28;20037;-81
2021/03/05 03:30:15;;;;;;;35.58;33.28;;;;;;;;;;5030743;28;20052;-81
2021/03/05 03:32:42;;;;;;;35.40;32.38;;;;;;;;;;5053075;28;20033;-81
2021/03/05 03:35:11;;;;;;;37.47;34.42;;;;;;;;;;5030628;28;20056;-81
2021/03/05 03:37:39;;;;;;;36.35;33.45;;;;;;;;;;5032420;28;20048;-81
2021/03/05 03:40:10;;;;;;;41.53;37.97;;;;;;;;;;5029147;28;20080;-81
2021/03/05 03:42:38;;;;;;;36.75;33.95;;;;;;;;;;5019225;28;20128;-81
2021/03/05 03:45:05;;;;;;;36.28;33.55;;;;;;;;;;5029939;28;20072;-81
2021/03/05 03:47:33;;;;;;;42.13;37.55;;;;;;;;;;5050123;28;20068;-81
2021/03/05 03:50:02;;;;;;;33.40;30.67;;;;;;;;;;5029031;28;20049;-81
2021/03/05 03:52:35;;;;;;;31.30;28.67;;;;;;;;;;5036435;28;20041;-81
2021/03/05 03:55:02;;;;;;;23.93;21.83;;;;;;;;;;5047244;28;20389;-81
2021/03/05 03:57:30;;;;;;;32.03;29.92;;;;;;;;;;5029330;28;20106;-81
2021/03/05 03:59:59;;;;;;;34.35;32.17;;;;;;;;;;5031292;28;20083;-81
2021/03/05 04:02:29;;;;;;;34.03;31.65;;;;;;;;;;5041279;28;20136;-81
2021/03/05 04:04:58;;;;;;;33.10;30.55;;;;;;;;;;5018388;28;20061;-81
2021/03/05 04:07:26;;;;;;;34.08;31.65;;;;;;;;;;5030955;28;20044;-81
2021/03/05 04:09:55;;;;;;;35.30;32.67;;;;;;;;;;5051906;28;20082;-81
2021/03/05 04:12:24;;;;;;;36.33;32.65;;;;;;;;;;5013744;28;20492;-81
2021/03/05 04:14:51;;;;;;;34.17;32.08;;;;;;;;;;5048403;28;20038;-81
2021/03/05 04:17:18;;;;;;;31.50;28.65;;;;;;;;;;5051399;28;20037;-81
2021/03/05 04:19:46;;;;;;;33.78;31.50;;;;;;;;;;5018994;28;20052;-81
2021/03/05 04:22:13;;;;;;;34.78;32.22;;;;;;;;;;5047956;28;20041;-81
2021/03/05 04:24:40;;;;;;;31.88;29.63;;;;;;;;;;5031966;28;20045;-81
2021/03/05 04:27:08;;;;;;;35.00;32.38;;;;;;;;;;5026583;28;20045;-81
2021/03/05 04:29:34;;;;;;;34.17;31.63;;;;;;;;;;5051759;28;20344;-81
2021/03/05 04:32:02;;;;;;;34.60;31.63;;;;;;;;;;5047920;28;20075;-81
2021/03/05 04:34:29;;;;;;;36.83;33.70;;;;;;;;;;5045832;28;20040;-81
2021/03/05 04:36:56;;;;;;;38.60;34.97;;;;;;;;;;5051927;28;20048;-81
2021/03/05 04:39:24;;;;;;;36.28;33.60;;;;;;;;;;5027914;28;20085;-81
2021/03/05 04:41:51;;;;;;;35.83;33.50;;;;;;;;;;5031937;28;20040;-81
2021/03/05 04:44:18;;;;;;;35.55;33.38;;;;;;;;;;5032138;28;20095;-81
2021/03/05 04:46:46;;;;;;;38.55;35.70;;;;;;;;;;5028240;28;20111;-81
2021/03/05 04:49:13;;;;;;;34.22;31.77;;;;;;;;;;5051646;28;20051;-81
2021/03/05 04:51:40;;;;;;;33.83;31.40;;;;;;;;;;5029253;28;20103;-81
2021/03/05 04:54:07;;;;;;;35.72;33.00;;;;;;;;;;5050261;28;20098;-81
2021/03/05 04:56:35;;;;;;;37.38;34.20;;;;;;;;;;5035161;28;20501;-81
2021/03/05 04:59:03;;;;;;;33.25;30.85;;;;;;;;;;5045630;28;20048;-81
2021/03/05 05:01:30;;;;;;;27.63;25.35;;;;;;;;;;5033837;28;20084;-81
2021/03/05 05:03:57;;;;;;;28.95;26.17;;;;;;;;;;5027544;28;20049;-81
2021/03/05 05:06:24;;;;;;;34.25;32.03;;;;;;;;;;5049083;28;20072;-81
2021/03/05 05:08:51;;;;;;;37.45;34.78;;;;;;;;;;5050497;28;20056;-81
2021/03/05 05:11:18;;;;;;;36.63;33.92;;;;;;;;;;5043742;28;20072;-81
2021/03/05 05:13:45;;;;;;;38.53;35.08;;;;;;;;;;5033139;28;20068;-81
2021/03/05 05:16:12;;;;;;;36.30;33.13;;;;;;;;;;5046913;28;20061;-81
2021/03/05 05:18:39;;;;;;;37.95;35.17;;;;;;;;;;5047973;28;20124;-81
2021/03/05 05:21:06;;;;;;;35.50;33.20;;;;;;;;;;5032976;28;20040;-81
2021/03/05 05:23:33;;;;;;;38.88;35.58;;;;;;;;;;5042755;28;20041;-81
2021/03/05 05:26:00;;;;;;;38.28;35.17;;;;;;;;;;5032619;28;20029;-81
2021/03/05 05:28:27;;;;;;;33.25;30.73;;;;;;;;;;5031779;28;20493;-81
2021/03/05 05:30:55;;;;;;;25.65;23.52;;;;;;;;;;5028724;28;20092;-81
2021/03/05 05:33:22;;;;;;;28.23;25.88;;;;;;;;;;5039515;28;20042;-81
2021/03/05 05:35:50;;;;;;;16.80;15.35;;;;;;;;;;5028522;28;20029;-81
2021/03/05 05:38:18;;;;;;;18.63;16.00;;;;;;;;;;5049304;28;20124;-81
2021/03/05 05:40:45;;;;;;;16.90;15.30;;;;;;;;;;5042043;28;20033;-81
2021/03/05 05:43:12;;;;;;;18.77;15.90;;;;;;;;;;5008577;28;20045;-81
2021/03/05 05:45:39;;;;;;;33.47;31.17;;;;;;;;;;5051052;28;20053;-81
2021/03/05 05:48:06;;;;;;;25.00;23.23;;;;;;;;;;5024852;28;20043;-81
2021/03/05 05:50:33;;;;;;;33.45;31.25;;;;;;;;;;5034001;28;20049;-81
2021/03/05 05:53:02;;;;;;;30.90;28.73;;;;;;;;;;5033622;28;20053;-81
2021/03/05 05:55:29;;;;;;;28.05;25.98;;;;;;;;;;5046661;28;20059;-81
2021/03/05 05:57:57;;;;;;;36.78;34.05;;;;;;;;;;5031400;28;20041;-81
2021/03/05 06:00:24;;;;;;;35.47;32.83;;;;;;;;;;5029549;28;20058;-81
2021/03/05 06:02:53;;;;;;;34.72;32.15;;;;;;;;;;5046884;28;20052;-81
2021/03/05 06:05:20;;;;;;;34.40;31.67;;;;;;;;;;5017407;28;20088;-81
2021/03/05 06:07:48;;;;;;;35.20;32.55;;;;;;;;;;5044067;28;20127;-81
2021/03/05 06:10:15;;;;;;;36.63;33.72;;;;;;;;;;5018884;28;20529;-81
2021/03/05 06:12:47;;;;;;;37.65;34.88;;;;;;;;;;5039616;28;20453;-81
2021/03/05 06:15:15;;;;;;;35.88;33.25;;;;;;;;;;5043304;28;20037;-81
2021/03/05 06:17:47;;;;;;;34.35;32.03;;;;;;;;;;5031829;28;20056;-81
2021/03/05 06:20:15;;;;;;;37.08;34.20;;;;;;;;;;5046568;28;20041;-81
2021/03/05 06:22:43;;;;;;;33.22;30.52;;;;;;;;;;5024710;28;20060;-81
2021/03/05 06:25:11;;;;;;;27.52;25.02;;;;;;;;;;5032458;28;20110;-81
2021/03/05 06:27:39;;;;;;;24.70;21.15;;;;;;;;;;5049108;28;20557;-79
2021/03/05 06:30:07;;;;;;;18.85;17.33;;;;;;;;;;5021482;28;20037;-79
2021/03/05 06:32:45;;;;;;;28.00;25.77;;;;;;;;;;5048499;28;20040;-79
2021/03/05 06:35:23;;;;;;;39.20;36.15;;;;;;;;;;5033186;28;20040;-79
2021/03/05 06:37:51;;;;;;;37.17;34.13;;;;;;;;;;5038023;28;20083;-79
2021/03/05 06:40:24;;;;;;;37.55;34.55;;;;;;;;;;5033148;28;20454;-79
2021/03/05 06:42:51;;;;;;;30.88;28.05;;;;;;;;;;5033331;28;20052;-79
2021/03/05 06:45:19;;;;;;;30.50;28.48;;;;;;;;;;5020341;28;20048;-79
2021/03/05 06:48:00;;;;;;;37.58;34.65;;;;;;;;;;5032531;28;20041;-79
2021/03/05 06:50:27;;;;;;;38.33;35.25;;;;;;;;;;5036880;28;20127;-79
2021/03/05 06:52:55;;;;;;;39.03;36.40;;;;;;;;;;5020602;28;20041;-79
2021/03/05 06:55:22;;;;;;;36.53;33.67;;;;;;;;;;5016228;28;20041;-79
2021/03/05 06:57:49;;;;;;;44.03;39.33;;;;;;;;;;5054195;28;20103;-79
2021/03/05 07:00:17;;;;;;;47.10;42.63;;;;;;;;;;5029682;28;20064;-79
2021/03/05 07:02:45;;;;;;;40.08;36.60;;;;;;;;;;5013470;28;20111;-79
2021/03/05 07:05:13;;;;;;;37.47;34.72;;;;;;;;;;5049945;28;20045;-79
2021/03/05 07:07:43;;;;;;;44.92;41.00;;;;;;;;;;5050459;28;20037;-79
2021/03/05 07:10:12;;;;;;;52.17;46.90;;;;;;;;;;5053519;28;20031;-79
2021/03/05 07:12:59;;;;;;;42.63;38.80;;;;;;;;;;5044591;28;21289;-79
2021/03/05 07:15:27;;;;;;;41.17;37.63;;;;;;;;;;5016603;28;20046;-79
2021/03/05 07:17:58;;;;;;;34.72;31.90;;;;;;;;;;5050954;28;20048;-79
2021/03/05 07:20:25;;;;;;;63.83;50.53;;;;;;;;;;5031515;28;20465;-79
2021/03/05 07:22:58;;;;;;;37.00;33.75;;;;;;;;;;5018125;28;20088;-79
2021/03/05 07:25:27;;;;;;;36.90;34.03;;;;;;;;;;5032854;28;20072;-79
2021/03/05 07:27:57;;;;;;;37.30;34.25;;;;;;;;;;5049855;28;20030;-79
2021/03/05 07:30:25;;;;;;;39.10;36.00;;;;;;;;;;5035862;28;20041;-79
2021/03/05 07:32:56;;;;;;;36.38;33.53;;;;;;;;;;5029214;28;20053;-79
2021/03/05 07:35:24;;;;;;;36.42;32.88;;;;;;;;;;5021780;28;20451;-79
2021/03/05 07:37:54;;;;;;;34.83;31.75;;;;;;;;;;5051720;28;20045;-79
2021/03/05 07:40:22;;;;;;;40.45;37.08;;;;;;;;;;5043810;28;20114;-79
2021/03/05 07:42:50;;;;;;;38.70;36.00;;;;;;;;;;5036285;28;20359;-80
2021/03/05 07:45:17;;;;;;;38.17;34.97;;;;;;;;;;5031367;28;20041;-80
2021/03/05 07:47:48;;;;;;;39.05;35.35;;;;;;;;;;5031194;28;20060;-80
2021/03/05 07:50:20;;;;;;;38.42;35.88;;;;;;;;;;5053068;28;20061;-80
2021/03/05 07:52:47;;;;;;;39.20;36.25;;;;;;;;;;5046450;28;20033;-80
2021/03/05 07:55:15;;;;;;;33.40;30.67;;;;;;;;;;5052178;28;20045;-80
2021/03/05 07:57:46;;;;;;;36.50;33.85;;;;;;;;;;5045073;28;20033;-80
2021/03/05 08:00:15;;;;;;;35.25;32.42;;;;;;;;;;5029885;28;20044;-80
2021/03/05 08:02:58;;;;;;;37.85;34.88;;;;;;;;;;5052162;28;20473;-80
2021/03/05 08:05:32;;;;;;;36.58;33.88;;;;;;;;;;5050971;28;20044;-80
2021/03/05 08:08:09;;;;;;;34.05;31.33;;;;;;;;;;5030809;28;20049;-80
2021/03/05 08:10:37;;;;;;;32.80;29.33;;;;;;;;;;5043005;28;20037;-80
2021/03/05 08:13:26;;;;;;;28.55;25.83;;;;;;;;;;5046688;28;20040;-80
2021/03/05 08:15:54;;;;;;;26.13;23.33;;;;;;;;;;5048483;28;20410;-80
2021/03/05 08:18:21;;;;;;;23.38;20.92;;;;;;;;;;5033863;28;20049;-80
2021/03/05 08:20:48;;;;;;;28.27;25.33;;;;;;;;;;5027606;28;20053;-80
2021/03/05 08:23:16;;;;;;;28.58;25.45;;;;;;;;;;5050730;28;20044;-80
2021/03/05 08:25:51;;;;;;;35.45;26.65;;;;;;;;;;5029976;28;20049;-80
2021/03/05 08:28:37;;;;;;;25.55;21.63;;;;;;;;;;5039507;28;20128;-80
2021/03/05 08:31:24;;;;;;;24.98;22.73;;;;;;;;;;5033297;28;20489;-80
2021/03/05 08:33:51;;;;;;;22.15;19.90;;;;;;;;;;5046251;28;20112;-80
2021/03/05 08:36:38;;;;;;;20.92;16.88;;;;;;;;;;5030902;28;20033;-80
2021/03/05 08:39:24;;;;;;;21.67;16.27;;;;;;;;;;5032799;28;20098;-80
2021/03/05 08:42:12;;;;;;;19.77;16.75;;;;;;;;;;5048044;28;20045;-80
2021/03/05 08:44:39;;;;;;;19.23;17.17;;;;;;;;;;5046908;28;20037;-80
2021/03/05 08:47:06;;;;;;;19.45;17.40;;;;;;;;;;5051222;28;20044;-80
2021/03/05 08:49:34;;;;;;;23.48;18.75;;;;;;;;;;5047452;28;20132;-80
2021/03/05 08:52:01;;;;;;;23.38;17.00;;;;;;;;;;5032133;28;20486;-80
2021/03/05 08:54:28;;;;;;;23.23;17.10;;;;;;;;;;5032045;28;20498;-80
2021/03/05 08:56:56;;;;;;;21.60;15.73;;;;;;;;;;5040799;28;20108;-80
2021/03/05 08:59:23;;;;;;;17.52;15.95;;;;;;;;;;5028949;28;20045;-80
2021/03/05 09:01:51;;;;;;;16.35;14.85;;;;;;;;;;5047535;28;20490;-79
2021/03/05 09:04:21;;;;;;;18.95;16.88;;;;;;;;;;5031080;28;20049;-80
2021/03/05 09:06:52;;;;;;;17.67;16.10;;;;;;;;;;5033719;28;20467;-80
2021/03/05 09:09:21;;;;;;;18.88;16.85;;;;;;;;;;5026866;28;20045;-80
2021/03/05 09:12:04;;;;;;;23.20;20.20;;;;;;;;;;5034432;28;20041;-80
2021/03/05 09:14:31;;;;;;;34.60;25.33;;;;;;;;;;5030861;28;20053;-80
2021/03/05 09:17:05;;;;;;;31.70;23.23;;;;;;;;;;5039309;28;20093;-80
2021/03/05 09:19:34;;;;;;;33.10;24.52;;;;;;;;;;5016268;28;20063;-80
2021/03/05 09:22:05;;;;;;;29.13;25.40;;;;;;;;;;5033536;28;20087;-80
2021/03/05 09:24:47;;;;;;;41.65;30.80;;;;;;;;;;5030161;28;20037;-80
2021/03/05 09:27:17;;;;;;;40.33;28.17;;;;;;;;;;5034316;28;20048;-80
2021/03/05 09:29:45;;;;;;;42.53;27.23;;;;;;;;;;5045396;28;20091;-80
2021/03/05 09:32:12;;;;;;;30.92;24.50;;;;;;;;;;5030392;28;20098;-80
2021/03/05 09:35:08;;;;;;;37.75;26.17;;;;;;;;;;5048104;28;20037;-80
2021/03/05 09:37:35;;;;;;;35.33;25.52;;;;;;;;;;4968943;28;20699;-80
2021/03/05 09:40:02;;;;;;;20.40;18.23;;;;;;;;;;4970793;28;20071;-80
2021/03/05 09:42:59;;;;;;;24.45;18.50;;;;;;;;;;4951033;28;20075;-80
2021/03/05 09:45:52;;;;;;;22.27;16.60;;;;;;;;;;4969911;28;20082;-80
2021/03/05 09:48:29;;;;;;;19.20;17.60;;;;;;;;;;4958584;28;20069;-80
2021/03/05 09:50:58;;;;;;;19.50;17.58;;;;;;;;;;4955203;28;20125;-80
2021/03/05 09:53:30;;;;;;;19.55;17.50;;;;;;;;;;4970747;28;20038;-80
2021/03/05 09:56:07;;;;;;;21.00;18.85;;;;;;;;;;4955623;28;20043;-80
2021/03/05 09:58:34;;;;;;;24.00;20.27;;;;;;;;;;4973282;28;20050;-80
2021/03/05 10:01:02;;;;;;;22.98;20.67;;;;;;;;;;4956891;28;20058;-80
2021/03/05 10:03:30;;;;;;;20.55;17.95;;;;;;;;;;4975106;28;20082;-80
2021/03/05 10:05:57;;;;;;;20.17;18.15;;;;;;;;;;4973972;28;20042;-80
2021/03/05 10:08:29;;;;;;;19.52;17.40;;;;;;;;;;4957289;28;20508;-80
2021/03/05 10:11:06;;;;;;;29.63;22.70;;;;;;;;;;4974268;28;20130;-80
2021/03/05 10:13:48;;;;;;;29.40;22.38;;;;;;;;;;4983531;28;20482;-80
2021/03/05 10:16:18;;;;;;;23.75;15.82;;;;;;;;;;5048589;28;20037;-80
2021/03/05 10:18:47;;;;;;;19.55;15.48;;;;;;;;;;5050272;28;20041;-80
2021/03/05 10:21:15;;;;;;;16.48;14.70;;;;;;;;;;5030947;28;20037;-80
2021/03/05 10:23:43;;;;;;;24.90;20.90;;;;;;;;;;5055577;28;20044;-80
2021/03/05 10:26:28;;;;;;;25.08;16.63;;;;;;;;;;5031279;28;20041;-80
2021/03/05 10:29:04;;;;;;;19.52;17.33;;;;;;;;;;5034363;28;20037;-80
2021/03/05 10:31:41;;;;;;;18.90;16.95;;;;;;;;;;5053529;28;20086;-80
2021/03/05 10:34:19;;;;;;;20.60;15.68;;;;;;;;;;5047474;28;20417;-80
2021/03/05 10:36:46;;;;;;;18.63;16.83;;;;;;;;;;5032218;28;20046;-80
2021/03/05 10:39:13;;;;;;;16.25;14.95;;;;;;;;;;5007904;28;20049;-80
2021/03/05 10:41:40;;;;;;;20.05;17.38;;;;;;;;;;5030843;28;20094;-80
2021/03/05 10:44:07;;;;;;;19.80;15.10;;;;;;;;;;5055156;28;20094;-80
2021/03/05 10:46:34;;;;;;;18.30;16.45;;;;;;;;;;5015224;28;20049;-80
2021/03/05 10:49:01;;;;;;;17.23;15.40;;;;;;;;;;5052506;28;20053;-80
2021/03/05 10:51:28;;;;;;;19.25;16.85;;;;;;;;;;5020593;28;20064;-80
2021/03/05 10:53:56;;;;;;;18.25;16.67;;;;;;;;;;5031808;28;20690;-80
2021/03/05 10:56:23;;;;;;;22.60;15.27;;;;;;;;;;5037018;28;20132;-80
2021/03/05 10:58:50;;;;;;;16.90;14.93;;;;;;;;;;5050337;28;20410;-80
2021/03/05 11:01:17;;;;;;;14.10;12.70;;;;;;;;;;5052366;28;20120;-80
2021/03/05 11:03:44;;;;;;;16.70;15.10;;;;;;;;;;5052624;28;20045;-80
2021/03/05 11:06:11;;;;;;;16.90;13.45;;;;;;;;;;5016908;28;20044;-80
2021/03/05 11:08:38;;;;;;;15.68;14.23;;;;;;;;;;5053519;28;20043;-80
2021/03/05 11:11:05;;;;;;;22.88;16.52;;;;;;;;;;5032878;28;20375;-80
2021/03/05 11:13:35;;;;;;;13.80;12.32;;;;;;;;;;5017650;28;20049;-80
2021/03/05 11:16:03;;;;;;;13.65;12.35;;;;;;;;;;5053858;28;20122;-80
2021/03/05 11:18:30;;;;;;;11.40;10.40;;;;;;;;;;5047853;28;20385;-80
2021/03/05 11:20:57;;;;;;;12.82;11.43;;;;;;;;;;5052526;28;20111;-80
2021/03/05 11:23:24;;;;;;;13.02;11.75;;;;;;;;;;5049927;28;20386;-80
2021/03/05 11:25:52;;;;;;;13.63;10.90;;;;;;;;;;5033494;28;20084;-80
2021/03/05 11:28:19;;;;;;;12.55;11.27;;;;;;;;;;5035282;28;20049;-80
2021/03/05 11:30:46;;;;;;;12.60;11.02;;;;;;;;;;5047838;28;20476;-80
2021/03/05 11:33:14;;;;;;;16.42;10.32;;;;;;;;;;5033082;28;20108;-80
2021/03/05 11:35:42;;;;;;;10.98;9.93;;;;;;;;;;5032749;28;20037;-80
2021/03/05 11:38:09;;;;;;;11.45;9.82;;;;;;;;;;5030304;28;20050;-80
2021/03/05 11:40:36;;;;;;;10.98;9.98;;;;;;;;;;5034454;28;20490;-80
2021/03/05 11:43:04;;;;;;;10.60;9.55;;;;;;;;;;5048722;28;20549;-80
2021/03/05 11:45:31;;;;;;;11.32;9.32;;;;;;;;;;5049429;28;20041;-80
2021/03/05 11:47:58;;;;;;;10.40;9.40;;;;;;;;;;5052441;28;20043;-80
2021/03/05 11:50:25;;;;;;;16.52;10.52;;;;;;;;;;5047178;28;20045;-80
2021/03/05 11:52:52;;;;;;;11.32;10.23;;;;;;;;;;5054354;28;20091;-80
2021/03/05 11:55:19;;;;;;;11.90;10.77;;;;;;;;;;5048930;28;20474;-80
2021/03/05 11:57:46;;;;;;;14.98;11.02;;;;;;;;;;5032994;28;20044;-80
2021/03/05 12:00:14;;;;;;;12.02;10.25;;;;;;;;;;5032835;28;20084;-80
2021/03/05 12:02:40;;;;;;;12.07;10.95;;;;;;;;;;5047199;28;20040;-80
2021/03/05 12:05:08;;;;;;;10.65;9.73;;;;;;;;;;5053952;28;20138;-80
2021/03/05 12:07:35;;;;;;;15.25;13.20;;;;;;;;;;5024068;28;20041;-80
2021/03/05 12:10:03;;;;;;;14.63;12.93;;;;;;;;;;5037467;28;20426;-81
2021/03/05 12:12:30;;;;;;;19.33;12.10;;;;;;;;;;5039575;28;20049;-81
2021/03/05 12:14:56;;;;;;;18.00;11.88;;;;;;;;;;5033711;28;20421;-81
2021/03/05 12:17:23;;;;;;;14.60;12.10;;;;;;;;;;5053784;28;20049;-81
2021/03/05 12:19:50;;;;;;;11.40;10.43;;;;;;;;;;5054006;28;20119;-81
2021/03/05 12:22:18;;;;;;;13.43;10.82;;;;;;;;;;5036405;28;20114;-81
2021/03/05 12:24:45;;;;;;;11.10;10.13;;;;;;;;;;5040857;28;20049;-81
2021/03/05 12:27:12;;;;;;;11.40;9.95;;;;;;;;;;5051119;28;20033;-81
2021/03/05 12:29:39;;;;;;;12.55;9.60;;;;;;;;;;5057700;28;20090;-81
2021/03/05 12:32:07;;;;;;;10.68;9.68;;;;;;;;;;5054184;28;20071;-81
2021/03/05 12:34:34;;;;;;;18.25;9.20;;;;;;;;;;5021139;28;20068;-81
2021/03/05 12:37:01;;;;;;;11.40;9.10;;;;;;;;;;5040008;28;20090;-81
2021/03/05 12:39:29;;;;;;;10.77;8.90;;;;;;;;;;5018044;28;20040;-81
2021/03/05 12:41:56;;;;;;;9.93;9.13;;;;;;;;;;5046242;28;20045;-81
2021/03/05 12:44:23;;;;;;;9.50;8.23;;;;;;;;;;5036714;28;20390;-81
2021/03/05 12:46:50;;;;;;;8.82;8.02;;;;;;;;;;5035762;28;20043;-81
2021/03/05 12:49:17;;;;;;;9.38;8.65;;;;;;;;;;5021147;28;20423;-81
2021/03/05 12:51:45;;;;;;;9.10;8.35;;;;;;;;;;5046010;28;20052;-81
2021/03/05 12:54:12;;;;;;;8.88;8.32;;;;;;;;;;5048587;28;20053;-81
2021/03/05 12:56:39;;;;;;;9.98;9.15;;;;;;;;;;5032331;28;20044;-82
2021/03/05 12:59:06;;;;;;;9.75;8.93;;;;;;;;;;5045799;28;20068;-81
2021/03/05 13:01:33;;;;;;;8.43;7.85;;;;;;;;;;5049963;28;20069;-81
2021/03/05 13:04:00;;;;;;;8.68;8.23;;;;;;;;;;5026606;28;20044;-81
2021/03/05 13:06:28;;;;;;;10.30;8.10;;;;;;;;;;5049019;28;20049;-81
2021/03/05 13:08:56;;;;;;;7.13;6.70;;;;;;;;;;5050525;28;20045;-81
2021/03/05 13:11:23;;;;;;;10.85;9.23;;;;;;;;;;5044881;28;20065;-81
2021/03/05 13:13:50;;;;;;;8.27;7.78;;;;;;;;;;5031561;28;20481;-81
2021/03/05 13:16:18;;;;;;;16.67;8.93;;;;;;;;;;5039921;28;20440;-81
2021/03/05 13:18:48;;;;;;;11.80;10.88;;;;;;;;;;5014290;28;20095;-81
2021/03/05 13:21:16;;;;;;;8.68;7.13;;;;;;;;;;5031453;28;20080;-81
2021/03/05 13:23:43;;;;;;;7.63;6.88;;;;;;;;;;5045835;28;20037;-81
2021/03/05 13:26:13;;;;;;;10.35;6.50;;;;;;;;;;5031626;28;20529;-81
2021/03/05 13:28:41;;;;;;;8.98;6.25;;;;;;;;;;5034085;28;20106;-81
2021/03/05 13:31:08;;;;;;;7.75;7.00;;;;;;;;;;5042057;28;20045;-81
2021/03/05 13:33:35;;;;;;;6.03;5.80;;;;;;;;;;5016624;28;20149;-81
2021/03/05 13:36:03;;;;;;;5.90;5.47;;;;;;;;;;5044512;28;20091;-81
2021/03/05 13:38:30;;;;;;;6.72;5.63;;;;;;;;;;5048424;28;20036;-81
2021/03/05 13:40:57;;;;;;;8.45;5.15;;;;;;;;;;5020891;28;20049;-81
2021/03/05 13:43:24;;;;;;;6.72;6.10;;;;;;;;;;5040771;28;20402;-81
2021/03/05 13:45:52;;;;;;;7.57;6.60;;;;;;;;;;5023624;28;20049;-81
2021/03/05 13:48:19;;;;;;;7.43;5.97;;;;;;;;;;5040059;28;20037;-81
2021/03/05 13:50:47;;;;;;;9.55;8.15;;;;;;;;;;5006974;28;20064;-81
2021/03/05 13:53:14;;;;;;;10.20;6.55;;;;;;;;;;5041640;28;20040;-81
2021/03/05 13:55:41;;;;;;;7.93;7.25;;;;;;;;;;5044376;28;20037;-80
2021/03/05 13:58:08;;;;;;;8.60;7.78;;;;;;;;;;5031895;28;20464;-81
2021/03/05 14:00:35;;;;;;;8.75;7.90;;;;;;;;;;5044645;28;20111;-81
2021/03/05 14:03:02;;;;;;;10.02;8.00;;;;;;;;;;5039937;28;20045;-81
2021/03/05 14:05:31;;;;;;;9.13;8.38;;;;;;;;;;5048452;28;20041;-81
2021/03/05 14:07:58;;;;;;;10.15;9.45;;;;;;;;;;5028308;28;20041;-81
2021/03/05 14:10:25;;;;;;;10.82;9.18;;;;;;;;;;5049290;28;20095;-81
2021/03/05 14:12:53;;;;;;;17.58;10.27;;;;;;;;;;5029543;28;20684;-81
2021/03/05 14:15:20;;;;;;;13.25;9.07;;;;;;;;;;5026437;28;20032;-81
2021/03/05 14:17:47;;;;;;;9.48;8.48;;;;;;;;;;5029609;28;20486;-81
2021/03/05 14:20:15;;;;;;;10.27;9.23;;;;;;;;;;5026379;28;20054;-81
2021/03/05 14:22:42;;;;;;;11.70;9.27;;;;;;;;;;5027572;28;20045;-81
2021/03/05 14:25:10;;;;;;;9.82;8.30;;;;;;;;;;5028054;28;20049;-81
2021/03/05 14:27:37;;;;;;;13.68;8.80;;;;;;;;;;5026026;28;20092;-81
2021/03/05 14:30:04;;;;;;;9.85;8.93;;;;;;;;;;5029294;28;20038;-81
2021/03/05 14:32:31;;;;;;;9.45;8.55;;;;;;;;;;5023704;28;20046;-81